Bath Springs, Tennessee
Current Conditions -  °F | °C
As of 8:15 AM on Sunday 25 Jan 2015 (Local Time) from KPVE Reporting Station
Clear Clear  
Wind Chill: 32°   Ceiling: Unl
Heat Index: 39°   Visibility: 10mi
Dew Point: 34°   Wind: 10mph
Humidity: 81%   Direction: 200°SSW
Pressure: 29.76"   Gusts: NA
Location:  35.44°N, 88.09°W
Report Text: KPVE 251415Z AUTO 20009KT 10SM CLR 04/01 A2976 RMK
Loading
Personal Weather Stations






























Interactive Weather Map New forecast layout! Learn more

10-Day Weather Forecast

Advertisements
Track Severe Weather on mobile